Golden Gate — WDF7183 — position and weather

sailwx.info

Track history (hours):
 
Tides and Currents Weather Stations Pressure Air Temp Water Temp Dewpoint Dewpoint Depression Visibility Wind Speed Wind Dir Waves Ship Positions

Golden Gate

Owner: Golden Gate Bridge Highway and Transportation District, San Francisco, CA. More information available from US FCC via Universal Licensing System and Coast Guard Vessel Documentation Center.

Last reported at 2018-Jul-21 04:27 UTC. Time now 2018-Jul-21 13:41 UTC.
Position N 37°57' W 122°31'.

Length 41 m; draft 3.8 m.

Type: Passenger vessel. MMSI: 366778450.

Date/timePositionNaut miles runAvg speedWind from/ knotsBaromVisibWave heightAir tempDewpointWater temp
2018-Jul-21 04:27N 37°57' W 122°31'0 0.1
2018-Jul-21 04:00N 37°57' W 122°31'0 0.0
2018-Jul-21 03:30N 37°57' W 122°31'0 0.0
2018-Jul-21 03:00N 37°57' W 122°31'0 0.0
2018-Jul-21 02:30N 37°57' W 122°31'0 0.0
2018-Jul-21 02:00N 37°57' W 122°31'0 0.0
2018-Jul-21 01:30N 37°57' W 122°31'0 0.1
2018-Jul-21 01:00N 37°57' W 122°30'1020.8
2018-Jul-21 00:30N 37°48' W 122°24'1 1.3
2018-Jul-21 00:01N 37°48' W 122°23'1020.1
2018-Jul-20 23:30N 37°57' W 122°30'1021.0
2018-Jul-20 23:00N 37°48' W 122°24'917.1
2018-Jul-20 22:31N 37°56' W 122°28'2 4.5
2018-Jul-20 22:00N 37°57' W 122°31'0 0.2
2018-Jul-20 21:30N 37°57' W 122°31'0 0.0
2018-Jul-20 21:00N 37°57' W 122°31'0 0.0
2018-Jul-20 20:30N 37°57' W 122°31'0 0.0
2018-Jul-20 20:01N 37°57' W 122°31'0 0.0
2018-Jul-20 19:30N 37°57' W 122°31'0 0.0
2018-Jul-20 19:00N 37°57' W 122°31'0 0.0
2018-Jul-20 18:30N 37°57' W 122°31'0 0.0
2018-Jul-20 18:00N 37°57' W 122°31'0 0.0
2018-Jul-20 17:30N 37°57' W 122°31'0 0.0
2018-Jul-20 17:00N 37°57' W 122°31'1021.1
2018-Jul-20 16:30N 37°48' W 122°24'1019.2
2018-Jul-20 16:00N 37°56' W 122°29'1 1.4
2018-Jul-20 15:30N 37°57' W 122°30'1020.3
2018-Jul-20 15:00N 37°48' W 122°24'1020.9
2018-Jul-20 14:30N 37°57' W 122°30'0 0.1
2018-Jul-20 14:00N 37°57' W 122°31'0 0.0
2018-Jul-20 02:44N 37°56' W 122°30'730.3
2018-Jul-20 02:30N 37°52' W 122°24'2 3.3
2018-Jul-20 02:01N 37°50' W 122°24'816.8
2018-Jul-20 01:30N 37°57' W 122°30'1020.3
2018-Jul-20 00:59N 37°48' W 122°24'4 7.7
2018-Jul-20 00:31N 37°51' W 122°25'713.7
2018-Jul-20 00:00N 37°57' W 122°30'1021.2
2018-Jul-19 23:30N 37°48' W 122°24'2 4.1
2018-Jul-19 23:01N 37°50' W 122°24'917.1
2018-Jul-19 22:30N 37°57' W 122°30'1020.9
2018-Jul-19 22:00N 37°48' W 122°24'713.5
2018-Jul-19 21:30N 37°54' W 122°27'4 8.1
2018-Jul-19 21:00N 37°57' W 122°31'0 0.0
2018-Jul-19 20:30N 37°57' W 122°31'0 0.0
2018-Jul-19 20:01N 37°57' W 122°31'1019.1
2018-Jul-19 19:30N 37°49' W 122°24'4 7.6
2018-Jul-19 19:01N 37°53' W 122°25'611.9
2018-Jul-19 18:30N 37°57' W 122°30'1020.7
2018-Jul-19 18:00N 37°48' W 122°23'5 9.9
2018-Jul-19 17:30N 37°53' W 122°25'611.1
2018-Jul-19 17:00N 37°57' W 122°30'4 8.8
2018-Jul-19 16:31N 37°54' W 122°26'712.9
2018-Jul-19 16:00N 37°48' W 122°24'1019.7
2018-Jul-19 15:30N 37°56' W 122°30'0 0.7
2018-Jul-19 15:00N 37°56' W 122°29'918.7
2018-Jul-19 14:31N 37°48' W 122°23'3 3.4
2018-Jul-19 13:30N 37°51' W 122°24'3 5.5
2018-Jul-19 13:01N 37°53' W 122°26'5 9.3
2018-Jul-19 12:31N 37°57' W 122°30'0 0.1
2018-Jul-19 04:59N 37°56' W 122°30'1021.2
2018-Jul-19 04:30N 37°48' W 122°24'918.4
2018-Jul-19 04:01N 37°56' W 122°29'2 3.3
2018-Jul-19 03:31N 37°55' W 122°27'815.4
2018-Jul-19 03:00N 37°48' W 122°24'1020.2
2018-Jul-19 02:30N 37°56' W 122°30'0 0.8
2018-Jul-19 02:00N 37°57' W 122°30'1020.4
2018-Jul-19 01:30N 37°48' W 122°24'3 5.3
2018-Jul-19 01:01N 37°50' W 122°24'815.9
2018-Jul-19 00:30N 37°57' W 122°30'1021.2
2018-Jul-19 00:01N 37°48' W 122°24'4 8.0
2018-Jul-18 23:30N 37°52' W 122°25'713.3
2018-Jul-18 23:00N 37°57' W 122°30'1021.1
2018-Jul-18 22:30N 37°48' W 122°24'1019.1
2018-Jul-18 22:00N 37°56' W 122°29'1 2.0
2018-Jul-18 21:30N 37°57' W 122°30'0 0.0
2018-Jul-18 21:00N 37°57' W 122°30'1019.8
2018-Jul-18 20:31N 37°49' W 122°23'3 6.3
2018-Jul-18 20:01N 37°52' W 122°25'713.5
2018-Jul-18 19:30N 37°57' W 122°30'1020.6
2018-Jul-18 19:01N 37°48' W 122°23'510.3
2018-Jul-18 18:31N 37°53' W 122°26'510.2
2018-Jul-18 18:00N 37°57' W 122°30'2 4.6
2018-Jul-18 17:31N 37°56' W 122°28'917.1
2018-Jul-18 17:00N 37°48' W 122°24'1019.1
2018-Jul-18 16:30N 37°56' W 122°29'1 2.0
2018-Jul-18 16:00N 37°57' W 122°30'1020.8
2018-Jul-18 15:30N 37°48' W 122°24'917.3
2018-Jul-18 15:00N 37°56' W 122°28'1 1.8
2018-Jul-18 14:30N 37°56' W 122°29'1 1.2
2018-Jul-18 13:30N 37°57' W 122°30'0 0.1
2018-Jul-18 12:56N 37°57' W 122°31'0 0.0
2018-Jul-18 02:43N 37°56' W 122°30'628.5
2018-Jul-18 02:31N 37°52' W 122°25'3 6.3
2018-Jul-18 02:00N 37°49' W 122°24'918.5
2018-Jul-18 01:30N 37°57' W 122°30'816.6
2018-Jul-18 01:01N 37°50' W 122°24'1 1.7
2018-Jul-18 00:31N 37°50' W 122°24'917.1
2018-Jul-18 00:00N 37°57' W 122°30'1021.0
2018-Jul-17 23:30N 37°48' W 122°24'1 2.7
2018-Jul-17 23:01N 37°49' W 122°24'918.4
2018-Jul-17 22:30N 37°57' W 122°30'1021.0
2018-Jul-17 22:00N 37°48' W 122°24'713.8
2018-Jul-17 21:30N 37°54' W 122°27'4 8.0
2018-Jul-17 21:00N 37°57' W 122°31'0 0.0
2018-Jul-17 20:30N 37°57' W 122°31'0 0.0
2018-Jul-17 20:00N 37°57' W 122°31'1019.5
2018-Jul-17 19:31N 37°49' W 122°23'4 7.9
2018-Jul-17 19:01N 37°53' W 122°25'611.5
2018-Jul-17 18:30N 37°57' W 122°30'1020.8
2018-Jul-17 18:00N 37°48' W 122°23'4 8.8
2018-Jul-17 17:30N 37°52' W 122°25'612.4
2018-Jul-17 17:00N 37°57' W 122°30'3 6.4
2018-Jul-17 16:30N 37°55' W 122°27'815.4
2018-Jul-17 16:01N 37°48' W 122°24'1019.1
2018-Jul-17 15:31N 37°56' W 122°29'0 0.3
2018-Jul-17 15:01N 37°56' W 122°30'1018.8
2018-Jul-17 14:30N 37°48' W 122°24'1021.4
2018-Jul-17 14:00N 37°57' W 122°30'816.6
2018-Jul-17 13:31N 37°50' W 122°24'510.3
2018-Jul-17 13:01N 37°55' W 122°27'3 6.4
2018-Jul-17 12:30N 37°57' W 122°31'0 0.0
2018-Jul-17 01:14N 37°57' W 122°31'0 0.3
2018-Jul-17 01:00N 37°57' W 122°30'918.6
2018-Jul-17 00:31N 37°49' W 122°23'9 9.1
2018-Jul-16 23:30N 37°57' W 122°30'1021.5
2018-Jul-16 23:00N 37°48' W 122°24'0 0.8
2018-Jul-16 22:31N 37°48' W 122°23'1121.0
2018-Jul-16 22:00N 37°57' W 122°31'0 0.0
2018-Jul-16 21:30N 37°57' W 122°31'0 0.0
2018-Jul-16 21:00N 37°57' W 122°31'0 0.0
2018-Jul-16 20:30N 37°57' W 122°31'0 0.0
2018-Jul-16 20:00N 37°57' W 122°31'0 0.0
2018-Jul-16 19:30N 37°57' W 122°31'0 0.0
2018-Jul-16 19:00N 37°57' W 122°31'0 0.0
2018-Jul-16 18:30N 37°57' W 122°31'0 0.0
2018-Jul-16 18:00N 37°57' W 122°31'0 0.0
2018-Jul-16 17:30N 37°57' W 122°31'0 0.0
2018-Jul-16 17:00N 37°57' W 122°31'1120.9
2018-Jul-16 16:30N 37°48' W 122°24'918.6
2018-Jul-16 16:01N 37°56' W 122°29'1 1.3
2018-Jul-16 15:30N 37°56' W 122°30'1019.5
2018-Jul-16 15:00N 37°48' W 122°24'1020.7
2018-Jul-16 14:30N 37°57' W 122°30'0 0.4
2018-Jul-16 13:59N 37°57' W 122°31'  
2018-Jul-14 01:02N 37°57' W 122°30'0 5.3
2018-Jul-14 01:01N 37°57' W 122°30'1020.6
2018-Jul-14 00:30N 37°48' W 122°24'5 9.3
2018-Jul-14 00:00N 37°52' W 122°25'612.2
2018-Jul-13 23:30N 37°57' W 122°30'1020.8
2018-Jul-13 23:00N 37°48' W 122°24'611.4
2018-Jul-13 22:31N 37°53' W 122°26'510.3
2018-Jul-13 22:00N 37°57' W 122°31'0 0.4
2018-Jul-13 21:30N 37°57' W 122°30'0 0.4
2018-Jul-13 21:00N 37°57' W 122°31'0 0.0
2018-Jul-13 20:30N 37°57' W 122°31'0 0.0
2018-Jul-13 20:00N 37°57' W 122°31'0 0.0
2018-Jul-13 19:30N 37°57' W 122°31'0 0.0
2018-Jul-13 19:00N 37°57' W 122°31'0 0.2
2018-Jul-13 18:30N 37°57' W 122°31'0 0.0
2018-Jul-13 18:00N 37°57' W 122°31'0 0.0
2018-Jul-13 17:30N 37°57' W 122°31'0 0.0
2018-Jul-13 17:00N 37°57' W 122°31'2 5.0
2018-Jul-13 16:31N 37°56' W 122°28'917.1
2018-Jul-13 16:00N 37°48' W 122°24'1019.1
2018-Jul-13 15:30N 37°56' W 122°29'0 0.1
2018-Jul-13 15:01N 37°56' W 122°29'1 0.9
2018-Jul-13 14:00N 37°57' W 122°30'713.6
2018-Jul-13 13:31N 37°52' W 122°24'3 5.0
2018-Jul-13 13:01N 37°54' W 122°27'4 8.5
2018-Jul-13 12:30N 37°57' W 122°30'0 0.0
2018-Jul-13 05:01N 37°57' W 122°30'0 2.0
2018-Jul-13 05:00N 37°57' W 122°30'1020.5
2018-Jul-13 04:30N 37°48' W 122°24'918.6
2018-Jul-13 04:00N 37°56' W 122°29'0 0.2
2018-Jul-13 03:31N 37°56' W 122°29'918.3
2018-Jul-13 03:00N 37°48' W 122°23'1020.4
2018-Jul-13 02:30N 37°57' W 122°30'0 0.3
2018-Jul-13 02:00N 37°57' W 122°30'1021.0
2018-Jul-13 01:30N 37°48' W 122°24'2 4.9
2018-Jul-13 01:01N 37°50' W 122°24'816.2
2018-Jul-13 00:30N 37°57' W 122°30'1020.9
2018-Jul-13 00:00N 37°48' W 122°24'2 3.9
2018-Jul-12 23:30N 37°50' W 122°24'917.3
2018-Jul-12 23:00N 37°57' W 122°30'1020.8
2018-Jul-12 22:30N 37°48' W 122°24'1020.2
2018-Jul-12 22:01N 37°56' W 122°30'0 1.0
2018-Jul-12 21:30N 37°57' W 122°31'0 0.0
2018-Jul-12 21:01N 37°57' W 122°31'0 0.0
2018-Jul-12 20:31N 37°57' W 122°31'0 0.0
2018-Jul-12 20:01N 37°57' W 122°31'0 0.0
2018-Jul-12 19:31N 37°57' W 122°31'0 0.0
2018-Jul-12 19:00N 37°57' W 122°31'0 0.0
2018-Jul-12 18:30N 37°57' W 122°31'0 0.0
2018-Jul-12 18:01N 37°57' W 122°31'3 5.4
2018-Jul-12 17:31N 37°55' W 122°27'816.3
2018-Jul-12 17:00N 37°48' W 122°24'1019.3
2018-Jul-12 16:31N 37°56' W 122°29'0 0.2
2018-Jul-12 16:00N 37°56' W 122°29'1019.3
2018-Jul-12 15:30N 37°48' W 122°24'1019.9
2018-Jul-12 15:00N 37°56' W 122°30'4 8.8
2018-Jul-12 14:31N 37°53' W 122°26'3 6.7
2018-Jul-12 14:01N 37°50' W 122°24'816.2
2018-Jul-12 13:30N 37°57' W 122°30'0 0.0
2018-Jul-12 05:01N 37°57' W 122°30'0 5.4
2018-Jul-12 05:00N 37°57' W 122°30'1020.8
2018-Jul-12 04:30N 37°48' W 122°24'917.6
2018-Jul-12 04:00N 37°56' W 122°28'1 1.7
2018-Jul-12 03:30N 37°56' W 122°29'918.8
2018-Jul-12 03:00N 37°48' W 122°24'1020.2
2018-Jul-12 02:30N 37°56' W 122°30'0 0.9
2018-Jul-12 02:00N 37°57' W 122°30'917.7
2018-Jul-12 01:31N 37°50' W 122°23'2 3.3
2018-Jul-12 01:00N 37°51' W 122°25'714.4
2018-Jul-12 00:30N 37°57' W 122°30'1020.7
2018-Jul-12 00:00N 37°48' W 122°24'2 4.5
2018-Jul-11 23:30N 37°50' W 122°25'816.5
2018-Jul-11 23:00N 37°57' W 122°30'1021.0
2018-Jul-11 22:30N 37°48' W 122°24'917.6
2018-Jul-11 22:01N 37°56' W 122°28'2 4.0
2018-Jul-11 21:30N 37°57' W 122°30'0 0.0
2018-Jul-11 20:59N 37°57' W 122°30'1021.4
2018-Jul-11 20:31N 37°48' W 122°23'3 6.4
2018-Jul-11 20:01N 37°51' W 122°25'713.6
2018-Jul-11 19:30N 37°57' W 122°30'1021.3
2018-Jul-11 19:00N 37°48' W 122°23'612.1
2018-Jul-11 18:31N 37°54' W 122°26'5 8.2
2018-Jul-11 17:57N 37°57' W 122°30'4 7.9
2018-Jul-11 17:29N 37°55' W 122°26'715.3
2018-Jul-11 17:00N 37°48' W 122°24'1019.3
2018-Jul-11 16:30N 37°56' W 122°29'1 1.6
2018-Jul-11 16:00N 37°57' W 122°30'1019.6
2018-Jul-11 15:29N 37°48' W 122°24'816.6
2018-Jul-11 15:00N 37°55' W 122°27'1 1.6
2018-Jul-11 14:30N 37°56' W 122°28'815.9
2018-Jul-11 14:01N 37°49' W 122°23'1017.6
2018-Jul-11 13:27N 37°57' W 122°30'0 0.0
2018-Jul-11 04:58N 37°56' W 122°30'1021.8
2018-Jul-11 04:30N 37°48' W 122°24'  
Track history (hours):
 
Tides and Currents Weather Stations Pressure Air Temp Water Temp Dewpoint Dewpoint Depression Visibility Wind Speed Wind Dir Waves Ship Positions

Golden Gate

Owner: Golden Gate Bridge Highway and Transportation District, San Francisco, CA. More information available from US FCC via Universal Licensing System and Coast Guard Vessel Documentation Center.

Last reported at 2018-Jul-21 04:27 UTC. Time now 2018-Jul-21 13:41 UTC.
Position N 37°57' W 122°31'.

Length 41 m; draft 3.8 m.

Type: Passenger vessel. MMSI: 366778450.

Date/timePositionNaut miles runAvg speedWind from/ knotsBaromVisibWave heightAir tempDewpointWater temp
2018-Jul-21 04:27N 37°57' W 122°31'0 0.1
2018-Jul-21 04:00N 37°57' W 122°31'0 0.0
2018-Jul-21 03:30N 37°57' W 122°31'0 0.0
2018-Jul-21 03:00N 37°57' W 122°31'0 0.0
2018-Jul-21 02:30N 37°57' W 122°31'0 0.0
2018-Jul-21 02:00N 37°57' W 122°31'0 0.0
2018-Jul-21 01:30N 37°57' W 122°31'0 0.1
2018-Jul-21 01:00N 37°57' W 122°30'1020.8
2018-Jul-21 00:30N 37°48' W 122°24'1 1.3
2018-Jul-21 00:01N 37°48' W 122°23'1020.1
2018-Jul-20 23:30N 37°57' W 122°30'1021.0
2018-Jul-20 23:00N 37°48' W 122°24'917.1
2018-Jul-20 22:31N 37°56' W 122°28'2 4.5
2018-Jul-20 22:00N 37°57' W 122°31'0 0.2
2018-Jul-20 21:30N 37°57' W 122°31'0 0.0
2018-Jul-20 21:00N 37°57' W 122°31'0 0.0
2018-Jul-20 20:30N 37°57' W 122°31'0 0.0
2018-Jul-20 20:01N 37°57' W 122°31'0 0.0
2018-Jul-20 19:30N 37°57' W 122°31'0 0.0
2018-Jul-20 19:00N 37°57' W 122°31'0 0.0
2018-Jul-20 18:30N 37°57' W 122°31'0 0.0
2018-Jul-20 18:00N 37°57' W 122°31'0 0.0
2018-Jul-20 17:30N 37°57' W 122°31'0 0.0
2018-Jul-20 17:00N 37°57' W 122°31'1021.1
2018-Jul-20 16:30N 37°48' W 122°24'1019.2
2018-Jul-20 16:00N 37°56' W 122°29'1 1.4
2018-Jul-20 15:30N 37°57' W 122°30'1020.3
2018-Jul-20 15:00N 37°48' W 122°24'1020.9
2018-Jul-20 14:30N 37°57' W 122°30'0 0.1
2018-Jul-20 14:00N 37°57' W 122°31'0 0.0
2018-Jul-20 02:44N 37°56' W 122°30'730.3
2018-Jul-20 02:30N 37°52' W 122°24'2 3.3
2018-Jul-20 02:01N 37°50' W 122°24'816.8
2018-Jul-20 01:30N 37°57' W 122°30'1020.3
2018-Jul-20 00:59N 37°48' W 122°24'4 7.7
2018-Jul-20 00:31N 37°51' W 122°25'713.7
2018-Jul-20 00:00N 37°57' W 122°30'1021.2
2018-Jul-19 23:30N 37°48' W 122°24'2 4.1
2018-Jul-19 23:01N 37°50' W 122°24'917.1
2018-Jul-19 22:30N 37°57' W 122°30'1020.9
2018-Jul-19 22:00N 37°48' W 122°24'713.5
2018-Jul-19 21:30N 37°54' W 122°27'4 8.1
2018-Jul-19 21:00N 37°57' W 122°31'0 0.0
2018-Jul-19 20:30N 37°57' W 122°31'0 0.0
2018-Jul-19 20:01N 37°57' W 122°31'1019.1
2018-Jul-19 19:30N 37°49' W 122°24'4 7.6
2018-Jul-19 19:01N 37°53' W 122°25'611.9
2018-Jul-19 18:30N 37°57' W 122°30'1020.7
2018-Jul-19 18:00N 37°48' W 122°23'5 9.9
2018-Jul-19 17:30N 37°53' W 122°25'611.1
2018-Jul-19 17:00N 37°57' W 122°30'4 8.8
2018-Jul-19 16:31N 37°54' W 122°26'712.9
2018-Jul-19 16:00N 37°48' W 122°24'1019.7
2018-Jul-19 15:30N 37°56' W 122°30'0 0.7
2018-Jul-19 15:00N 37°56' W 122°29'918.7
2018-Jul-19 14:31N 37°48' W 122°23'3 3.4
2018-Jul-19 13:30N 37°51' W 122°24'3 5.5
2018-Jul-19 13:01N 37°53' W 122°26'5 9.3
2018-Jul-19 12:31N 37°57' W 122°30'0 0.1
2018-Jul-19 04:59N 37°56' W 122°30'1021.2
2018-Jul-19 04:30N 37°48' W 122°24'918.4
2018-Jul-19 04:01N 37°56' W 122°29'2 3.3
2018-Jul-19 03:31N 37°55' W 122°27'815.4
2018-Jul-19 03:00N 37°48' W 122°24'1020.2
2018-Jul-19 02:30N 37°56' W 122°30'0 0.8
2018-Jul-19 02:00N 37°57' W 122°30'1020.4
2018-Jul-19 01:30N 37°48' W 122°24'3 5.3
2018-Jul-19 01:01N 37°50' W 122°24'815.9
2018-Jul-19 00:30N 37°57' W 122°30'1021.2
2018-Jul-19 00:01N 37°48' W 122°24'4 8.0
2018-Jul-18 23:30N 37°52' W 122°25'713.3
2018-Jul-18 23:00N 37°57' W 122°30'1021.1
2018-Jul-18 22:30N 37°48' W 122°24'1019.1
2018-Jul-18 22:00N 37°56' W 122°29'1 2.0
2018-Jul-18 21:30N 37°57' W 122°30'0 0.0
2018-Jul-18 21:00N 37°57' W 122°30'1019.8
2018-Jul-18 20:31N 37°49' W 122°23'3 6.3
2018-Jul-18 20:01N 37°52' W 122°25'713.5
2018-Jul-18 19:30N 37°57' W 122°30'1020.6
2018-Jul-18 19:01N 37°48' W 122°23'510.3
2018-Jul-18 18:31N 37°53' W 122°26'510.2
2018-Jul-18 18:00N 37°57' W 122°30'2 4.6
2018-Jul-18 17:31N 37°56' W 122°28'917.1
2018-Jul-18 17:00N 37°48' W 122°24'1019.1
2018-Jul-18 16:30N 37°56' W 122°29'1 2.0
2018-Jul-18 16:00N 37°57' W 122°30'1020.8
2018-Jul-18 15:30N 37°48' W 122°24'917.3
2018-Jul-18 15:00N 37°56' W 122°28'1 1.8
2018-Jul-18 14:30N 37°56' W 122°29'1 1.2
2018-Jul-18 13:30N 37°57' W 122°30'0 0.1
2018-Jul-18 12:56N 37°57' W 122°31'0 0.0
2018-Jul-18 02:43N 37°56' W 122°30'628.5
2018-Jul-18 02:31N 37°52' W 122°25'3 6.3
2018-Jul-18 02:00N 37°49' W 122°24'918.5
2018-Jul-18 01:30N 37°57' W 122°30'816.6
2018-Jul-18 01:01N 37°50' W 122°24'1 1.7
2018-Jul-18 00:31N 37°50' W 122°24'917.1
2018-Jul-18 00:00N 37°57' W 122°30'1021.0
2018-Jul-17 23:30N 37°48' W 122°24'1 2.7
2018-Jul-17 23:01N 37°49' W 122°24'918.4
2018-Jul-17 22:30N 37°57' W 122°30'1021.0
2018-Jul-17 22:00N 37°48' W 122°24'713.8
2018-Jul-17 21:30N 37°54' W 122°27'4 8.0
2018-Jul-17 21:00N 37°57' W 122°31'0 0.0
2018-Jul-17 20:30N 37°57' W 122°31'0 0.0
2018-Jul-17 20:00N 37°57' W 122°31'1019.5
2018-Jul-17 19:31N 37°49' W 122°23'4 7.9
2018-Jul-17 19:01N 37°53' W 122°25'611.5
2018-Jul-17 18:30N 37°57' W 122°30'1020.8
2018-Jul-17 18:00N 37°48' W 122°23'4 8.8
2018-Jul-17 17:30N 37°52' W 122°25'612.4
2018-Jul-17 17:00N 37°57' W 122°30'3 6.4
2018-Jul-17 16:30N 37°55' W 122°27'815.4
2018-Jul-17 16:01N 37°48' W 122°24'1019.1
2018-Jul-17 15:31N 37°56' W 122°29'0 0.3
2018-Jul-17 15:01N 37°56' W 122°30'1018.8
2018-Jul-17 14:30N 37°48' W 122°24'1021.4
2018-Jul-17 14:00N 37°57' W 122°30'816.6
2018-Jul-17 13:31N 37°50' W 122°24'510.3
2018-Jul-17 13:01N 37°55' W 122°27'3 6.4
2018-Jul-17 12:30N 37°57' W 122°31'0 0.0
2018-Jul-17 01:14N 37°57' W 122°31'0 0.3
2018-Jul-17 01:00N 37°57' W 122°30'918.6
2018-Jul-17 00:31N 37°49' W 122°23'9 9.1
2018-Jul-16 23:30N 37°57' W 122°30'1021.5
2018-Jul-16 23:00N 37°48' W 122°24'0 0.8
2018-Jul-16 22:31N 37°48' W 122°23'1121.0
2018-Jul-16 22:00N 37°57' W 122°31'0 0.0
2018-Jul-16 21:30N 37°57' W 122°31'0 0.0
2018-Jul-16 21:00N 37°57' W 122°31'0 0.0
2018-Jul-16 20:30N 37°57' W 122°31'0 0.0
2018-Jul-16 20:00N 37°57' W 122°31'0 0.0
2018-Jul-16 19:30N 37°57' W 122°31'0 0.0
2018-Jul-16 19:00N 37°57' W 122°31'0 0.0
2018-Jul-16 18:30N 37°57' W 122°31'0 0.0
2018-Jul-16 18:00N 37°57' W 122°31'0 0.0
2018-Jul-16 17:30N 37°57' W 122°31'0 0.0
2018-Jul-16 17:00N 37°57' W 122°31'1120.9
2018-Jul-16 16:30N 37°48' W 122°24'918.6
2018-Jul-16 16:01N 37°56' W 122°29'1 1.3
2018-Jul-16 15:30N 37°56' W 122°30'1019.5
2018-Jul-16 15:00N 37°48' W 122°24'1020.7
2018-Jul-16 14:30N 37°57' W 122°30'0 0.4
2018-Jul-16 13:59N 37°57' W 122°31'  
2018-Jul-14 01:02N 37°57' W 122°30'0 5.3
2018-Jul-14 01:01N 37°57' W 122°30'1020.6
2018-Jul-14 00:30N 37°48' W 122°24'5 9.3
2018-Jul-14 00:00N 37°52' W 122°25'612.2
2018-Jul-13 23:30N 37°57' W 122°30'1020.8
2018-Jul-13 23:00N 37°48' W 122°24'611.4
2018-Jul-13 22:31N 37°53' W 122°26'510.3
2018-Jul-13 22:00N 37°57' W 122°31'0 0.4
2018-Jul-13 21:30N 37°57' W 122°30'0 0.4
2018-Jul-13 21:00N 37°57' W 122°31'0 0.0
2018-Jul-13 20:30N 37°57' W 122°31'0 0.0
2018-Jul-13 20:00N 37°57' W 122°31'0 0.0
2018-Jul-13 19:30N 37°57' W 122°31'0 0.0
2018-Jul-13 19:00N 37°57' W 122°31'0 0.2
2018-Jul-13 18:30N 37°57' W 122°31'0 0.0
2018-Jul-13 18:00N 37°57' W 122°31'0 0.0
2018-Jul-13 17:30N 37°57' W 122°31'0 0.0
2018-Jul-13 17:00N 37°57' W 122°31'2 5.0
2018-Jul-13 16:31N 37°56' W 122°28'917.1
2018-Jul-13 16:00N 37°48' W 122°24'1019.1
2018-Jul-13 15:30N 37°56' W 122°29'0 0.1
2018-Jul-13 15:01N 37°56' W 122°29'1 0.9
2018-Jul-13 14:00N 37°57' W 122°30'713.6
2018-Jul-13 13:31N 37°52' W 122°24'3 5.0
2018-Jul-13 13:01N 37°54' W 122°27'4 8.5
2018-Jul-13 12:30N 37°57' W 122°30'0 0.0
2018-Jul-13 05:01N 37°57' W 122°30'0 2.0
2018-Jul-13 05:00N 37°57' W 122°30'1020.5
2018-Jul-13 04:30N 37°48' W 122°24'918.6
2018-Jul-13 04:00N 37°56' W 122°29'0 0.2
2018-Jul-13 03:31N 37°56' W 122°29'918.3
2018-Jul-13 03:00N 37°48' W 122°23'1020.4
2018-Jul-13 02:30N 37°57' W 122°30'0 0.3
2018-Jul-13 02:00N 37°57' W 122°30'1021.0
2018-Jul-13 01:30N 37°48' W 122°24'2 4.9
2018-Jul-13 01:01N 37°50' W 122°24'816.2
2018-Jul-13 00:30N 37°57' W 122°30'1020.9
2018-Jul-13 00:00N 37°48' W 122°24'2 3.9
2018-Jul-12 23:30N 37°50' W 122°24'917.3
2018-Jul-12 23:00N 37°57' W 122°30'1020.8
2018-Jul-12 22:30N 37°48' W 122°24'1020.2
2018-Jul-12 22:01N 37°56' W 122°30'0 1.0
2018-Jul-12 21:30N 37°57' W 122°31'0 0.0
2018-Jul-12 21:01N 37°57' W 122°31'0 0.0
2018-Jul-12 20:31N 37°57' W 122°31'0 0.0
2018-Jul-12 20:01N 37°57' W 122°31'0 0.0
2018-Jul-12 19:31N 37°57' W 122°31'0 0.0
2018-Jul-12 19:00N 37°57' W 122°31'0 0.0
2018-Jul-12 18:30N 37°57' W 122°31'0 0.0
2018-Jul-12 18:01N 37°57' W 122°31'3 5.4
2018-Jul-12 17:31N 37°55' W 122°27'816.3
2018-Jul-12 17:00N 37°48' W 122°24'1019.3
2018-Jul-12 16:31N 37°56' W 122°29'0 0.2
2018-Jul-12 16:00N 37°56' W 122°29'1019.3
2018-Jul-12 15:30N 37°48' W 122°24'1019.9
2018-Jul-12 15:00N 37°56' W 122°30'4 8.8
2018-Jul-12 14:31N 37°53' W 122°26'3 6.7
2018-Jul-12 14:01N 37°50' W 122°24'816.2
2018-Jul-12 13:30N 37°57' W 122°30'0 0.0
2018-Jul-12 05:01N 37°57' W 122°30'0 5.4
2018-Jul-12 05:00N 37°57' W 122°30'1020.8
2018-Jul-12 04:30N 37°48' W 122°24'917.6
2018-Jul-12 04:00N 37°56' W 122°28'1 1.7
2018-Jul-12 03:30N 37°56' W 122°29'918.8
2018-Jul-12 03:00N 37°48' W 122°24'1020.2
2018-Jul-12 02:30N 37°56' W 122°30'0 0.9
2018-Jul-12 02:00N 37°57' W 122°30'917.7
2018-Jul-12 01:31N 37°50' W 122°23'2 3.3
2018-Jul-12 01:00N 37°51' W 122°25'714.4
2018-Jul-12 00:30N 37°57' W 122°30'1020.7
2018-Jul-12 00:00N 37°48' W 122°24'2 4.5
2018-Jul-11 23:30N 37°50' W 122°25'816.5
2018-Jul-11 23:00N 37°57' W 122°30'1021.0
2018-Jul-11 22:30N 37°48' W 122°24'917.6
2018-Jul-11 22:01N 37°56' W 122°28'2 4.0
2018-Jul-11 21:30N 37°57' W 122°30'0 0.0
2018-Jul-11 20:59N 37°57' W 122°30'1021.4
2018-Jul-11 20:31N 37°48' W 122°23'3 6.4
2018-Jul-11 20:01N 37°51' W 122°25'713.6
2018-Jul-11 19:30N 37°57' W 122°30'1021.3
2018-Jul-11 19:00N 37°48' W 122°23'612.1
2018-Jul-11 18:31N 37°54' W 122°26'5 8.2
2018-Jul-11 17:57N 37°57' W 122°30'4 7.9
2018-Jul-11 17:29N 37°55' W 122°26'715.3
2018-Jul-11 17:00N 37°48' W 122°24'1019.3
2018-Jul-11 16:30N 37°56' W 122°29'1 1.6
2018-Jul-11 16:00N 37°57' W 122°30'1019.6
2018-Jul-11 15:29N 37°48' W 122°24'816.6
2018-Jul-11 15:00N 37°55' W 122°27'1 1.6
2018-Jul-11 14:30N 37°56' W 122°28'815.9
2018-Jul-11 14:01N 37°49' W 122°23'1017.6
2018-Jul-11 13:27N 37°57' W 122°30'0 0.0
2018-Jul-11 04:58N 37°56' W 122°30'1021.8
2018-Jul-11 04:30N 37°48' W 122°24'  

Dump ship's entire track history